Time;durP1;ratioP1;P1;durP2;ratioP2;P2;SDS_P1;SDS_P2;PMS_P1;PMS_P2;Temp;Humidity;BMP_temperature;BMP_pressure;BME280_temperature;BME280_humidity;BME280_pressure;Samples;Min_cycle;Max_cycle;Signal;HPM_P1;HPM_P2
2022/02/20 00:01:01;;;;;;;15.87;7.43;;;;;;;10.99;54.08;101679.88;5049989;28;20508;-71
2022/02/20 00:03:28;;;;;;;14.27;7.27;;;;;;;11.11;54.28;101694.59;5040118;28;20407;-70
2022/02/20 00:05:55;;;;;;;11.83;5.90;;;;;;;11.09;54.25;101693.16;5050220;28;20076;-71
2022/02/20 00:08:21;;;;;;;15.27;7.50;;;;;;;11.10;54.36;101697.66;5053893;28;20506;-71
2022/02/20 00:10:48;;;;;;;18.23;7.33;;;;;;;11.11;54.40;101697.41;5051124;28;20078;-74
2022/02/20 00:13:16;;;;;;;17.80;8.43;;;;;;;10.91;54.41;101660.75;5051741;28;20104;-70
2022/02/20 00:15:43;;;;;;;18.23;7.20;;;;;;;11.05;54.33;101687.25;5057868;28;20053;-69
2022/02/20 00:18:10;;;;;;;15.93;7.17;;;;;;;11.05;54.50;101687.25;5073615;28;20036;-72
2022/02/20 00:20:37;;;;;;;17.27;8.30;;;;;;;11.08;54.65;101697.06;5050611;28;20092;-72
2022/02/20 00:23:05;;;;;;;16.30;7.20;;;;;;;11.08;54.44;101695.13;5051919;28;20045;-72
2022/02/20 00:25:33;;;;;;;16.90;9.30;;;;;;;11.07;54.58;101692.56;5052672;28;20123;-71
2022/02/20 00:28:02;;;;;;;20.70;7.67;;;;;;;10.85;54.48;101661.78;5052280;28;20071;-72
2022/02/20 00:30:30;;;;;;;24.90;7.80;;;;;;;10.98;54.68;101688.53;5048856;28;20554;-69
2022/02/20 00:32:58;;;;;;;26.77;7.63;;;;;;;11.01;54.61;101697.25;5049166;28;20122;-71
2022/02/20 00:35:29;;;;;;;17.20;8.00;;;;;;;10.97;54.45;101686.81;5045090;28;20143;-72
2022/02/20 00:37:57;;;;;;;22.07;8.93;;;;;;;10.77;54.57;101667.78;5050793;28;20088;-71
2022/02/20 00:40:24;;;;;;;21.60;9.10;;;;;;;10.71;54.67;101680.84;5049471;28;20064;-78
2022/02/20 00:42:51;;;;;;;24.80;9.50;;;;;;;10.89;54.72;101716.03;5047900;28;20152;-80
2022/02/20 00:45:18;;;;;;;19.30;9.47;;;;;;;10.81;54.64;101713.69;5042237;28;20129;-79
2022/02/20 00:47:45;;;;;;;20.50;9.30;;;;;;;10.81;55.02;101708.09;5042390;28;20124;-81
2022/02/20 00:50:12;;;;;;;14.70;7.23;;;;;;;10.83;54.79;101717.06;5047120;28;20068;-90
2022/02/20 00:52:39;;;;;;;23.77;7.83;;;;;;;10.76;55.28;101710.78;5043213;28;20080;-88
2022/02/20 00:55:07;;;;;;;16.47;8.63;;;;;;;10.76;55.18;101714.44;5050602;28;20073;-84
2022/02/20 00:57:34;;;;;;;19.73;8.03;;;;;;;10.78;55.04;101700.22;5048386;28;20053;-81
2022/02/20 01:00:04;;;;;;;16.50;8.80;;;;;;;10.79;55.16;101699.09;5045658;28;20474;-81
2022/02/20 01:02:31;;;;;;;23.20;8.00;;;;;;;10.58;54.84;101673.63;5047532;28;20112;-82
2022/02/20 01:04:58;;;;;;;15.87;8.07;;;;;;;10.75;55.16;101697.94;5046439;28;20636;-74
2022/02/20 01:07:25;;;;;;;20.17;7.87;;;;;;;10.57;55.13;101669.16;5048007;28;20049;-77
2022/02/20 01:09:52;;;;;;;22.20;8.37;;;;;;;10.78;55.07;101698.28;5049848;28;20095;-75
2022/02/20 01:12:19;;;;;;;18.50;8.77;;;;;;;10.85;55.14;101717.66;5051808;28;20139;-77
2022/02/20 01:14:47;;;;;;;24.27;8.93;;;;;;;10.73;55.06;101695.38;5050970;28;20073;-73
2022/02/20 01:17:14;;;;;;;16.73;7.03;;;;;;;10.77;55.19;101696.59;5050236;28;20053;-74
2022/02/20 01:19:41;;;;;;;22.47;9.53;;;;;;;10.57;55.25;101666.34;5051425;28;20053;-74
2022/02/20 01:22:09;;;;;;;21.93;9.20;;;;;;;10.78;55.49;101708.59;5049925;28;20041;-77
2022/02/20 01:24:36;;;;;;;20.70;7.93;;;;;;;10.76;55.56;101703.25;5049886;28;20073;-84
2022/02/20 01:27:03;;;;;;;20.67;7.93;;;;;;;10.67;55.57;101686.09;5052000;28;20895;-82
2022/02/20 01:29:30;;;;;;;15.67;7.63;;;;;;;10.81;55.43;101708.94;5049820;28;20561;-83
2022/02/20 01:31:56;;;;;;;21.23;8.63;;;;;;;10.66;55.48;101673.19;5047728;28;20152;-83
2022/02/20 01:34:23;;;;;;;24.87;11.20;;;;;;;10.73;55.48;101677.78;5045962;28;20139;-73
2022/02/20 01:36:51;;;;;;;16.40;8.47;;;;;;;10.86;55.37;101691.41;5048379;28;20120;-78
2022/02/20 01:39:18;;;;;;;12.77;6.90;;;;;;;10.87;55.30;101685.56;5053170;28;20132;-71
2022/02/20 01:41:45;;;;;;;15.93;7.03;;;;;;;10.86;55.20;101685.81;5048243;28;20088;-77
2022/02/20 01:44:12;;;;;;;15.67;6.53;;;;;;;10.98;54.76;101694.97;5048132;28;20053;-74
2022/02/20 01:46:44;;;;;;;16.70;6.53;;;;;;;10.97;54.85;101672.84;5048706;28;20080;-75
2022/02/20 01:49:14;;;;;;;11.73;5.97;;;;;;;10.81;54.96;101655.00;5052003;28;20091;-71
2022/02/20 01:51:41;;;;;;;14.57;6.63;;;;;;;10.89;55.02;101666.59;5050692;28;20132;-70
2022/02/20 01:54:08;;;;;;;10.50;6.07;;;;;;;10.92;54.67;101676.41;5048194;28;20230;-74
2022/02/20 01:56:36;;;;;;;15.83;7.07;;;;;;;10.94;54.93;101685.41;5050346;28;20040;-74
2022/02/20 01:59:04;;;;;;;14.70;8.00;;;;;;;10.94;54.52;101673.34;5043436;28;20474;-70
2022/02/20 02:01:32;;;;;;;14.67;7.00;;;;;;;10.86;54.46;101664.28;5043456;28;20136;-73
2022/02/20 02:03:59;;;;;;;19.47;7.33;;;;;;;11.03;54.37;101699.78;5050218;28;20080;-71
2022/02/20 02:06:28;;;;;;;17.70;7.53;;;;;;;10.66;54.41;101645.25;5047796;28;20072;-73
2022/02/20 02:08:55;;;;;;;14.27;8.60;;;;;;;10.88;54.28;101697.59;5041636;28;20426;-73
2022/02/20 02:11:23;;;;;;;15.33;7.90;;;;;;;10.51;54.48;101652.56;5049743;28;20079;-75
2022/02/20 02:13:50;;;;;;;23.83;8.97;;;;;;;10.65;54.65;101693.00;5046194;28;20069;-76
2022/02/20 02:16:21;;;;;;;19.37;8.70;;;;;;;10.59;54.71;101694.03;5047553;28;20148;-74
2022/02/20 02:18:48;;;;;;;18.53;9.07;;;;;;;10.54;54.66;101697.59;5053455;28;20049;-76
2022/02/20 02:21:15;;;;;;;20.63;9.70;;;;;;;10.46;54.91;101689.63;5049411;28;20171;-76
2022/02/20 02:23:42;;;;;;;17.93;9.50;;;;;;;10.25;54.95;101654.00;5050076;28;20091;-77
2022/02/20 02:26:12;;;;;;;28.70;9.57;;;;;;;10.20;54.93;101646.41;5046598;28;20061;-79
2022/02/20 02:28:39;;;;;;;16.42;9.45;;;;;;;10.27;55.18;101658.28;5047898;28;20091;-78
2022/02/20 02:31:06;;;;;;;17.07;9.03;;;;;;;10.11;55.44;101636.72;5048934;28;20148;-78
2022/02/20 02:33:34;;;;;;;19.70;9.50;;;;;;;10.23;55.33;101651.47;5050262;28;20128;-79
2022/02/20 02:36:05;;;;;;;17.67;10.13;;;;;;;10.14;55.28;101636.22;5053086;28;20045;-79
2022/02/20 02:38:32;;;;;;;18.55;9.23;;;;;;;10.12;55.26;101656.03;5044787;28;20477;-78
2022/02/20 02:41:10;;;;;;;20.40;8.97;;;;;;;10.14;55.29;101655.78;5051023;28;20141;-80
2022/02/20 02:43:39;;;;;;;16.67;8.97;;;;;;;10.06;55.41;101642.25;5048961;28;20478;-79
2022/02/20 02:46:06;;;;;;;16.50;8.97;;;;;;;9.95;55.75;101635.63;5041154;28;20490;-74
2022/02/20 02:48:34;;;;;;;21.27;9.33;;;;;;;10.06;55.78;101645.88;5054493;28;20128;-75
2022/02/20 02:51:02;;;;;;;18.93;9.10;;;;;;;10.02;55.72;101643.84;5056432;28;20051;-73
2022/02/20 02:53:30;;;;;;;16.23;7.60;;;;;;;9.75;55.85;101598.97;5076933;28;20029;-73
2022/02/20 02:55:57;;;;;;;17.13;6.77;;;;;;;9.96;56.22;101634.50;5067035;28;20041;-75
2022/02/20 02:58:25;;;;;;;13.43;7.33;;;;;;;10.09;55.99;101634.22;5052422;28;20077;-75
2022/02/20 03:00:53;;;;;;;20.53;8.90;;;;;;;9.85;55.72;101600.00;5043573;28;20099;-77
2022/02/20 03:03:21;;;;;;;12.60;7.37;;;;;;;9.99;55.98;101633.19;5052209;28;20412;-79
2022/02/20 03:05:48;;;;;;;18.43;8.27;;;;;;;10.05;55.94;101629.34;5048939;28;20549;-82
2022/02/20 03:08:15;;;;;;;14.27;8.60;;;;;;;10.09;55.86;101639.78;5053492;28;20045;-83
2022/02/20 03:10:42;;;;;;;17.47;7.97;;;;;;;9.96;55.83;101629.78;5054717;28;20140;-79
2022/02/20 03:13:09;;;;;;;11.13;7.80;;;;;;;9.99;55.92;101633.19;5050229;28;20452;-78
2022/02/20 03:15:36;;;;;;;17.13;7.37;;;;;;;9.97;55.67;101631.47;5045081;28;20083;-78
2022/02/20 03:18:03;;;;;;;16.67;8.00;;;;;;;9.95;55.49;101625.31;5056747;28;20075;-78
2022/02/20 03:20:30;;;;;;;17.87;8.53;;;;;;;10.11;55.62;101670.22;5053781;28;20131;-78
2022/02/20 03:22:57;;;;;;;21.20;9.00;;;;;;;9.98;55.88;101660.22;5056225;28;20077;-76
2022/02/20 03:25:24;;;;;;;24.60;10.20;;;;;;;9.86;56.13;101651.91;5051913;28;20091;-74
2022/02/20 03:27:51;;;;;;;18.90;9.73;;;;;;;9.83;56.17;101662.72;5044090;28;20174;-70
2022/02/20 03:30:18;;;;;;;20.07;10.70;;;;;;;9.70;56.28;101653.53;5052560;28;20143;-71
2022/02/20 03:32:45;;;;;;;24.00;9.43;;;;;;;9.75;56.28;101663.13;5048878;28;20470;-71
2022/02/20 03:35:11;;;;;;;15.87;8.67;;;;;;;9.50;56.25;101625.22;5040888;28;20136;-73
2022/02/20 03:37:38;;;;;;;15.90;9.50;;;;;;;9.63;56.18;101651.97;5050672;28;20523;-69
2022/02/20 03:40:06;;;;;;;18.53;9.40;;;;;;;9.58;56.34;101644.38;5053345;28;20427;-74
2022/02/20 03:42:33;;;;;;;18.37;8.23;;;;;;;9.66;56.39;101663.50;5050944;28;20581;-73
2022/02/20 03:44:59;;;;;;;12.77;8.13;;;;;;;9.55;56.44;101644.88;5051924;28;20079;-74
2022/02/20 03:47:27;;;;;;;16.10;8.47;;;;;;;9.66;56.66;101657.91;5032754;28;20139;-74
2022/02/20 03:49:54;;;;;;;13.43;8.30;;;;;;;9.68;56.38;101660.47;5049440;28;20139;-74
2022/02/20 03:52:21;;;;;;;16.63;8.43;;;;;;;9.70;56.54;101658.25;5052405;28;20140;-76
2022/02/20 03:54:48;;;;;;;16.60;9.63;;;;;;;9.59;56.23;101643.28;5052120;28;20135;-77
2022/02/20 03:57:15;;;;;;;18.77;8.93;;;;;;;9.41;56.20;101624.78;5052271;28;20135;-77
2022/02/20 03:59:41;;;;;;;16.87;7.43;;;;;;;9.53;56.50;101646.19;5054694;28;20486;-77
2022/02/20 04:02:08;;;;;;;23.07;7.50;;;;;;;9.60;56.58;101649.69;5052712;28;20128;-78
2022/02/20 04:04:36;;;;;;;11.90;6.20;;;;;;;9.55;56.42;101622.56;5053514;28;20534;-78
2022/02/20 04:07:03;;;;;;;14.43;7.20;;;;;;;9.68;56.72;101630.63;5052732;28;20132;-74
2022/02/20 04:09:29;;;;;;;14.43;6.70;;;;;;;9.57;56.48;101619.50;5053487;28;20080;-74
2022/02/20 04:11:56;;;;;;;20.00;8.37;;;;;;;9.65;56.40;101622.75;5049811;28;20171;-75
2022/02/20 04:14:23;;;;;;;19.63;9.43;;;;;;;9.48;56.31;101607.91;5048490;28;20140;-74
2022/02/20 04:16:51;;;;;;;15.83;8.40;;;;;;;9.62;56.18;101645.56;5051983;28;20500;-74
2022/02/20 04:19:18;;;;;;;20.17;8.60;;;;;;;9.57;56.25;101647.38;5050268;28;20136;-73
2022/02/20 04:21:44;;;;;;;15.50;8.50;;;;;;;9.17;56.10;101589.69;5049906;28;20084;-73
2022/02/20 04:24:11;;;;;;;14.10;8.40;;;;;;;9.26;56.39;101613.28;5053491;28;20473;-73
2022/02/20 04:26:38;;;;;;;18.50;8.87;;;;;;;9.40;56.37;101637.03;5069661;28;20055;-71
2022/02/20 04:29:05;;;;;;;14.10;7.97;;;;;;;9.43;56.47;101638.47;5074078;28;20057;-72
2022/02/20 04:31:32;;;;;;;14.70;8.13;;;;;;;9.47;56.38;101631.31;5077108;28;20033;-71
2022/02/20 04:33:59;;;;;;;15.63;7.93;;;;;;;9.40;56.46;101613.84;5077639;28;20036;-73
2022/02/20 04:36:25;;;;;;;16.13;7.67;;;;;;;9.32;56.28;101614.25;5073481;28;20033;-74
2022/02/20 04:38:52;;;;;;;19.07;9.23;;;;;;;9.34;56.54;101615.72;5076968;28;20029;-73
2022/02/20 04:41:21;;;;;;;12.90;7.93;;;;;;;9.43;56.36;101642.09;5077984;28;20041;-75
2022/02/20 04:43:48;;;;;;;21.57;9.23;;;;;;;9.38;56.61;101625.28;5070098;28;20143;-74
2022/02/20 04:46:15;;;;;;;16.83;9.40;;;;;;;9.35;56.64;101631.34;5067144;28;20040;-75
2022/02/20 04:48:42;;;;;;;13.93;8.83;;;;;;;9.36;56.32;101624.66;5055249;28;20558;-75
2022/02/20 04:51:09;;;;;;;19.50;9.50;;;;;;;9.30;56.23;101614.50;5061763;28;20083;-70
2022/02/20 04:53:36;;;;;;;16.10;8.63;;;;;;;9.17;56.25;101598.06;5054975;28;20053;-70
2022/02/20 04:56:04;;;;;;;19.53;9.20;;;;;;;9.09;56.31;101593.69;5048015;28;20132;-73
2022/02/20 04:58:31;;;;;;;13.07;8.93;;;;;;;9.33;56.17;101635.44;5053663;28;20163;-72
2022/02/20 05:00:58;;;;;;;15.60;8.93;;;;;;;9.30;56.41;101641.50;5049383;28;20069;-70
2022/02/20 05:03:26;;;;;;;62.97;26.43;;;;;;;9.19;56.77;101651.59;5051485;28;20052;-71
2022/02/20 05:05:53;;;;;;;19.40;9.33;;;;;;;8.95;57.01;101629.31;5050226;28;20131;-71
2022/02/20 05:08:20;;;;;;;20.80;10.10;;;;;;;8.61;57.54;101586.47;5051405;28;20045;-70
2022/02/20 05:10:47;;;;;;;16.07;8.70;;;;;;;8.99;57.27;101668.69;5051617;28;20127;-71
2022/02/20 05:13:13;;;;;;;14.97;8.97;;;;;;;8.84;57.30;101643.28;5044214;28;20110;-71
2022/02/20 05:15:40;;;;;;;15.63;7.77;;;;;;;8.77;57.43;101633.09;5048630;28;20055;-71
2022/02/20 05:18:07;;;;;;;14.90;8.80;;;;;;;8.69;57.24;101636.25;5049544;28;20128;-71
2022/02/20 05:20:35;;;;;;;15.73;7.53;;;;;;;8.90;57.30;101662.66;5052831;28;20796;-71
2022/02/20 05:23:04;;;;;;;12.93;7.93;;;;;;;8.82;57.43;101659.38;5053360;28;20056;-71
2022/02/20 05:25:31;;;;;;;21.30;8.50;;;;;;;8.71;57.36;101653.56;5059301;28;20537;-70
2022/02/20 05:27:58;;;;;;;14.50;8.13;;;;;;;8.82;57.69;101673.28;5048676;28;20041;-73
2022/02/20 05:30:24;;;;;;;11.67;6.80;;;;;;;8.83;57.50;101672.22;5075006;28;20124;-72
2022/02/20 05:32:51;;;;;;;14.27;7.37;;;;;;;8.86;57.61;101671.75;5068470;28;20083;-70
2022/02/20 05:35:19;;;;;;;14.37;6.57;;;;;;;8.90;57.60;101671.00;5050178;28;20153;-69
2022/02/20 05:37:48;;;;;;;13.07;6.73;;;;;;;8.90;57.54;101668.22;5048525;28;20567;-68
2022/02/20 05:40:20;;;;;;;13.87;6.20;;;;;;;8.94;57.63;101677.78;5051358;28;20135;-69
2022/02/20 05:42:47;;;;;;;10.97;6.17;;;;;;;8.98;57.64;101684.56;5048067;28;20135;-69
2022/02/20 05:45:14;;;;;;;13.10;5.73;;;;;;;8.98;57.58;101690.13;5043314;28;20139;-69
2022/02/20 05:47:41;;;;;;;12.60;7.37;;;;;;;8.87;57.59;101659.50;5050471;28;20049;-70
2022/02/20 05:50:09;;;;;;;17.43;7.47;;;;;;;8.93;57.63;101670.53;5051349;28;20099;-69
2022/02/20 05:52:37;;;;;;;13.13;8.03;;;;;;;9.03;57.24;101681.06;5046367;28;20049;-70
2022/02/20 05:55:05;;;;;;;10.80;6.00;;;;;;;8.96;57.31;101685.91;5049950;28;20075;-71
2022/02/20 05:57:52;;;;;;;15.77;7.43;;;;;;;8.88;57.13;101700.19;5049563;28;20072;-72
2022/02/20 06:00:21;;;;;;;12.80;6.70;;;;;;;8.81;57.17;101693.91;5048802;28;20137;-73
2022/02/20 06:02:48;;;;;;;12.40;6.57;;;;;;;8.84;57.47;101722.13;5047770;28;20080;-75
2022/02/20 06:05:15;;;;;;;17.50;8.00;;;;;;;8.67;57.41;101707.19;5053396;28;20151;-80
2022/02/20 06:07:42;;;;;;;13.33;7.17;;;;;;;8.36;57.41;101669.34;5054889;28;20060;-79
2022/02/20 06:10:10;;;;;;;20.53;7.27;;;;;;;8.49;57.49;101702.56;5052847;28;20144;-77
2022/02/20 06:12:40;;;;;;;13.60;8.00;;;;;;;8.51;57.55;101717.09;5061171;28;20404;-84
2022/02/20 06:15:08;;;;;;;15.63;7.73;;;;;;;8.65;57.81;101740.00;5054212;28;20110;-79
2022/02/20 06:17:35;;;;;;;13.03;7.20;;;;;;;8.64;57.77;101738.31;5048900;28;20236;-79
2022/02/20 06:20:03;;;;;;;12.07;7.53;;;;;;;8.46;58.17;101697.47;5044724;28;20080;-80
2022/02/20 06:22:30;;;;;;;14.23;7.73;;;;;;;8.52;57.85;101714.06;5046508;28;20132;-76
2022/02/20 06:24:57;;;;;;;12.30;6.90;;;;;;;8.63;58.12;101737.47;5047156;28;20132;-73
2022/02/20 06:27:24;;;;;;;12.23;7.47;;;;;;;8.06;58.10;101647.97;5052562;28;20053;-75
2022/02/20 06:30:11;;;;;;;14.33;7.27;;;;;;;8.69;58.17;101744.03;5050253;28;20044;-78
2022/02/20 06:32:38;;;;;;;16.50;8.13;;;;;;;8.68;58.17;101740.41;5049227;28;20073;-79
2022/02/20 06:35:05;;;;;;;15.87;8.50;;;;;;;8.71;58.40;101733.47;5052238;28;20127;-74
2022/02/20 06:37:32;;;;;;;9.33;5.77;;;;;;;8.62;58.29;101705.16;5049779;28;20139;-75
2022/02/20 06:39:59;;;;;;;12.93;6.07;;;;;;;8.84;58.29;101722.13;5049659;28;20097;-72
2022/02/20 06:42:26;;;;;;;14.27;6.17;;;;;;;8.98;58.06;101737.50;5050980;28;20109;-74
2022/02/20 06:44:52;;;;;;;9.63;4.73;;;;;;;8.91;58.02;101706.13;5049895;28;20172;-74
2022/02/20 06:47:20;;;;;;;13.83;5.87;;;;;;;8.96;58.09;101708.22;5049566;28;20049;-74
2022/02/20 06:49:47;;;;;;;15.57;7.23;;;;;;;9.07;57.98;101724.06;5050940;28;20132;-74
2022/02/20 06:52:13;;;;;;;14.70;6.90;;;;;;;9.16;57.83;101728.22;5047817;28;20172;-74
2022/02/20 06:54:40;;;;;;;10.40;6.53;;;;;;;9.11;57.75;101732.78;5050170;28;20106;-70
2022/02/20 06:57:09;;;;;;;15.37;6.30;;;;;;;9.01;57.56;101733.41;5050088;28;20132;-73
2022/02/20 06:59:35;;;;;;;15.07;7.00;;;;;;;8.90;57.68;101720.31;5043835;28;20140;-71
2022/02/20 07:02:02;;;;;;;15.37;8.63;;;;;;;9.00;57.89;101742.84;5052331;28;20489;-75
2022/02/20 07:04:29;;;;;;;11.53;7.00;;;;;;;8.97;57.53;101737.75;5062361;28;20060;-74
2022/02/20 07:06:56;;;;;;;20.53;6.97;;;;;;;8.94;57.65;101739.09;5063961;28;20052;-69
2022/02/20 07:09:23;;;;;;;11.80;7.77;;;;;;;8.78;57.44;101723.06;5047547;28;20041;-70
2022/02/20 07:11:50;;;;;;;13.50;7.40;;;;;;;8.81;57.44;101741.25;5055214;28;20141;-71
2022/02/20 07:14:17;;;;;;;14.40;7.80;;;;;;;8.48;57.47;101692.53;5061336;28;20049;-74
2022/02/20 07:16:44;;;;;;;17.47;8.97;;;;;;;8.60;57.45;101726.78;5052339;28;20045;-70
2022/02/20 07:19:11;;;;;;;14.43;7.90;;;;;;;8.68;57.45;101761.78;5051082;28;20083;-69
2022/02/20 07:21:38;;;;;;;14.57;8.30;;;;;;;8.55;57.54;101737.81;5058864;28;20045;-71
2022/02/20 07:24:05;;;;;;;18.80;8.43;;;;;;;8.58;57.64;101759.63;5062291;28;20486;-72
2022/02/20 07:26:33;;;;;;;12.63;8.43;;;;;;;8.41;57.59;101739.97;5063976;28;20056;-79
2022/02/20 07:28:59;;;;;;;10.47;4.90;;;;;;;8.39;58.14;101767.16;5066542;28;20428;-75
2022/02/20 07:31:29;;;;;;;10.80;4.80;;;;;;;8.07;59.09;101733.16;5055325;28;20045;-71
2022/02/20 07:33:57;;;;;;;12.43;5.13;;;;;;;8.20;59.62;101755.19;5049450;28;20095;-70
2022/02/20 07:36:24;;;;;;;14.27;5.57;;;;;;;8.43;59.05;101767.53;5048525;28;20468;-71
2022/02/20 07:38:50;;;;;;;8.97;4.40;;;;;;;8.37;59.35;101772.06;5056036;28;20092;-69
2022/02/20 07:41:20;;;;;;;11.63;4.67;;;;;;;8.37;59.55;101765.66;5061340;28;20538;-72
2022/02/20 07:43:48;;;;;;;7.17;3.43;;;;;;;8.43;59.44;101771.16;5049999;28;20083;-73
2022/02/20 07:46:21;;;;;;;7.45;3.97;;;;;;;8.50;59.39;101768.28;5048735;28;20079;-73
2022/02/20 07:48:48;;;;;;;14.57;5.10;;;;;;;8.62;59.81;101763.63;5053980;28;20107;-72
2022/02/20 07:51:15;;;;;;;2.60;1.80;;;;;;;8.80;59.58;101775.78;5051642;28;20064;-73
2022/02/20 07:53:42;;;;;;;3.43;1.83;;;;;;;8.55;59.90;101743.38;5055290;28;20092;-72
2022/02/20 07:56:10;;;;;;;11.97;4.33;;;;;;;8.91;59.74;101777.72;5049671;28;20113;-74
2022/02/20 07:58:37;;;;;;;3.50;3.00;;;;;;;8.68;59.38;101726.47;5046969;28;20533;-72
2022/02/20 08:01:05;;;;;;;7.97;4.30;;;;;;;9.04;59.31;101771.09;5041386;28;20515;-72
2022/02/20 08:03:33;;;;;;;5.90;3.77;;;;;;;9.38;59.10;101783.34;5049587;28;20060;-74
2022/02/20 08:06:00;;;;;;;9.50;5.83;;;;;;;9.76;58.23;101781.97;5053468;28;20160;-72
2022/02/20 08:08:28;;;;;;;11.33;5.20;;;;;;;9.98;57.63;101755.09;5063343;28;20217;-71
2022/02/20 08:10:56;;;;;;;9.00;5.03;;;;;;;10.55;56.95;101776.63;5055854;28;20092;-74
2022/02/20 08:13:23;;;;;;;8.33;5.20;;;;;;;10.80;56.31;101742.72;5057711;28;20132;-74
2022/02/20 08:15:51;;;;;;;10.60;5.57;;;;;;;11.39;55.60;101757.09;5063545;28;20456;-74
2022/02/20 08:18:19;;;;;;;8.83;5.23;;;;;;;11.98;55.33;101782.56;5053191;28;20076;-74
2022/02/20 08:20:46;;;;;;;10.27;6.30;;;;;;;12.43;55.02;101798.25;5042543;28;20136;-75
2022/02/20 08:23:33;;;;;;;10.53;5.57;;;;;;;12.55;54.50;101770.94;5047609;28;21047;-74
2022/02/20 08:26:00;;;;;;;10.03;5.60;;;;;;;12.94;54.41;101810.00;5047318;28;20211;-74
2022/02/20 08:28:26;;;;;;;6.63;4.40;;;;;;;13.16;53.70;101804.31;5047537;28;20053;-74
2022/02/20 08:30:53;;;;;;;10.43;4.57;;;;;;;13.32;52.98;101810.06;5044432;28;20127;-73
2022/02/20 08:33:20;;;;;;;9.20;5.37;;;;;;;13.54;52.68;101807.13;5046921;28;20119;-74
2022/02/20 08:36:09;;;;;;;9.60;4.57;;;;;;;13.83;52.46;101810.41;5037097;28;20060;-75
2022/02/20 08:38:37;;;;;;;11.75;4.80;;;;;;;14.13;52.07;101801.31;5043310;28;20053;-76
2022/02/20 08:41:04;;;;;;;8.73;5.27;;;;;;;14.36;51.73;101808.44;5046213;28;20073;-76
2022/02/20 08:43:31;;;;;;;9.53;5.93;;;;;;;14.62;51.42;101790.53;5044285;28;20122;-75
2022/02/20 08:46:00;;;;;;;10.33;5.70;;;;;;;14.80;50.84;101780.75;5043088;28;20423;-74
2022/02/20 08:48:30;;;;;;;10.20;5.40;;;;;;;15.47;50.26;101811.69;5046893;28;20072;-74
2022/02/20 08:50:57;;;;;;;10.57;5.57;;;;;;;15.86;49.21;101770.56;5044554;28;20126;-76
2022/02/20 08:53:25;;;;;;;10.67;5.23;;;;;;;16.64;47.89;101802.88;5042867;28;20053;-74
2022/02/20 08:55:52;;;;;;;8.77;4.37;;;;;;;17.16;47.25;101821.19;5038886;28;20139;-75
2022/02/20 08:58:18;;;;;;;10.43;5.75;;;;;;;17.38;46.63;101814.22;5043675;28;20144;-76
2022/02/20 09:00:48;;;;;;;7.60;4.73;;;;;;;17.89;45.94;101825.06;5047249;28;20057;-75
2022/02/20 09:03:15;;;;;;;9.38;4.82;;;;;;;18.15;45.28;101828.41;5048004;28;20340;-77
2022/02/20 09:05:43;;;;;;;7.82;4.47;;;;;;;18.32;45.13;101827.94;5050322;28;20455;-77
2022/02/20 09:08:10;;;;;;;10.45;5.05;;;;;;;18.41;44.16;101795.03;5039906;28;20051;-76
2022/02/20 09:10:37;;;;;;;11.18;6.60;;;;;;;19.21;44.13;101841.41;5051975;28;20083;-76
2022/02/20 09:13:03;;;;;;;11.65;6.60;;;;;;;19.84;43.42;101843.75;5050662;28;20148;-77
2022/02/20 09:15:30;;;;;;;9.38;6.25;;;;;;;20.38;42.58;101836.47;5053376;28;20049;-77
2022/02/20 09:17:57;;;;;;;12.15;6.05;;;;;;;20.71;41.93;101802.25;5050709;28;20099;-76
2022/02/20 09:20:25;;;;;;;9.25;6.50;;;;;;;21.45;41.19;101842.53;5046445;28;20049;-78
2022/02/20 09:22:54;;;;;;;8.77;6.38;;;;;;;21.77;40.32;101829.19;5048520;28;20077;-78
2022/02/20 09:25:21;;;;;;;11.63;7.10;;;;;;;22.21;39.93;101848.19;5047034;28;20131;-75
2022/02/20 09:27:47;;;;;;;9.43;5.28;;;;;;;22.44;39.30;101829.00;5050919;28;20041;-75
2022/02/20 09:30:15;;;;;;;9.57;6.13;;;;;;;22.86;38.74;101845.69;5046928;28;20512;-74
2022/02/20 09:32:42;;;;;;;9.70;5.90;;;;;;;23.02;38.19;101826.97;5049660;28;20128;-76
2022/02/20 09:35:09;;;;;;;12.65;6.35;;;;;;;23.37;38.04;101839.19;5046556;28;20175;-76
2022/02/20 09:37:36;;;;;;;10.90;5.70;;;;;;;23.64;37.66;101837.16;5049779;28;20049;-76
2022/02/20 09:40:05;;;;;;;9.32;6.68;;;;;;;23.96;36.96;101827.19;5042057;28;20183;-73
2022/02/20 09:42:31;;;;;;;14.10;8.25;;;;;;;24.25;36.89;101834.13;5043042;28;20077;-76
2022/02/20 09:45:00;;;;;;;15.15;8.52;;;;;;;24.42;36.04;101821.81;5048268;28;20127;-70
2022/02/20 09:47:30;;;;;;;9.55;6.97;;;;;;;24.61;35.49;101807.91;5049195;28;20045;-68
2022/02/20 09:50:00;;;;;;;9.98;6.00;;;;;;;24.96;35.35;101825.66;5051820;28;20480;-68
2022/02/20 09:52:28;;;;;;;8.77;5.35;;;;;;;25.03;35.11;101819.41;5050522;28;20060;-72
2022/02/20 09:54:55;;;;;;;11.50;6.10;;;;;;;25.15;34.66;101825.19;5038904;28;20084;-73
2022/02/20 09:57:22;;;;;;;8.80;5.47;;;;;;;25.40;34.12;101846.19;5045897;28;20052;-71
2022/02/20 09:59:49;;;;;;;7.72;4.82;;;;;;;25.51;33.87;101852.31;5040492;28;20132;-71
2022/02/20 10:02:20;;;;;;;11.02;5.32;;;;;;;25.61;33.60;101840.41;5044260;28;20144;-72
2022/02/20 10:05:14;;;;;;;11.77;5.80;;;;;;;25.63;33.72;101826.59;5043231;28;20385;-72
2022/02/20 10:07:41;;;;;;;8.82;4.75;;;;;;;25.93;33.22;101855.09;5041643;28;20583;-74
2022/02/20 10:10:15;;;;;;;7.55;4.70;;;;;;;25.95;33.00;101858.44;5044823;28;20578;-74
2022/02/20 10:12:43;;;;;;;5.82;4.38;;;;;;;26.04;32.72;101853.44;5038997;28;20060;-73
2022/02/20 10:15:41;;;;;;;5.13;4.00;;;;;;;26.11;33.43;101853.69;5042100;28;20143;-71
2022/02/20 10:18:18;;;;;;;7.00;4.43;;;;;;;26.16;32.64;101858.34;5037262;28;20037;-72
2022/02/20 10:20:47;;;;;;;5.78;3.90;;;;;;;25.98;32.56;101851.97;5042426;28;20140;-72
2022/02/20 10:23:16;;;;;;;8.00;3.70;;;;;;;26.08;32.45;101854.38;5049807;28;20095;-72
2022/02/20 10:25:44;;;;;;;7.53;3.30;;;;;;;26.28;32.43;101860.38;5048608;28;20087;-74
2022/02/20 10:28:11;;;;;;;6.38;3.90;;;;;;;26.34;32.03;101844.66;5054490;28;20076;-79
2022/02/20 10:30:38;;;;;;;7.70;3.30;;;;;;;26.57;31.64;101830.72;5048130;28;20162;-81
2022/02/20 10:33:26;;;;;;;10.82;3.85;;;;;;;26.96;31.25;101866.38;5043143;28;20073;-77
2022/02/20 10:35:54;;;;;;;5.85;4.05;;;;;;;27.10;31.35;101871.72;5052455;28;20137;-76
2022/02/20 10:38:23;;;;;;;7.07;3.83;;;;;;;27.20;31.23;101865.50;5042194;28;20050;-77
2022/02/20 10:40:55;;;;;;;5.15;4.05;;;;;;;27.20;31.08;101862.63;5032549;28;20108;-72
2022/02/20 10:43:23;;;;;;;7.65;4.53;;;;;;;27.36;30.97;101863.53;5049007;28;20053;-78
2022/02/20 10:46:04;;;;;;;7.68;3.72;;;;;;;27.44;30.40;101864.59;5071910;28;20017;-77
2022/02/20 10:48:44;;;;;;;4.10;2.95;;;;;;;27.52;30.52;101860.75;5050353;28;20073;-73
2022/02/20 10:51:13;;;;;;;4.90;3.20;;;;;;;27.53;29.97;101850.94;5048489;28;20515;-72
2022/02/20 10:53:48;;;;;;;4.15;2.58;;;;;;;27.62;30.33;101854.47;5051872;28;20057;-71
2022/02/20 10:56:16;;;;;;;3.97;2.65;;;;;;;27.56;30.14;101866.59;5054562;28;20044;-73
2022/02/20 10:58:46;;;;;;;4.07;2.85;;;;;;;27.73;29.83;101851.91;5047216;28;20755;-72
2022/02/20 11:01:21;;;;;;;5.25;3.17;;;;;;;27.83;29.99;101847.72;5044114;28;20507;-72
2022/02/20 11:03:49;;;;;;;3.42;2.40;;;;;;;27.95;29.91;101844.75;5043999;28;20045;-73
2022/02/20 11:06:17;;;;;;;3.65;2.72;;;;;;;28.13;29.67;101850.97;5050113;28;20049;-73
2022/02/20 11:08:44;;;;;;;4.88;2.72;;;;;;;28.18;29.43;101861.38;5045730;28;20110;-73
2022/02/20 11:13:59;;;;;;;5.95;3.30;;;;;;;28.22;29.31;101819.19;5051174;28;20049;-71
2022/02/20 11:16:33;;;;;;;5.22;2.88;;;;;;;28.42;28.89;101852.59;5048667;28;20215;-72
2022/02/20 11:19:03;;;;;;;4.78;2.83;;;;;;;28.37;29.01;101832.72;5047761;28;20519;-73
2022/02/20 11:21:37;;;;;;;3.95;2.88;;;;;;;28.42;28.98;101823.84;5056533;28;20083;-73
2022/02/20 11:24:05;;;;;;;5.65;2.72;;;;;;;28.53;28.45;101830.69;5051662;28;20467;-71
2022/02/20 11:26:37;;;;;;;5.53;3.53;;;;;;;28.86;28.64;101846.69;5052239;28;20087;-72
2022/02/20 11:29:04;;;;;;;4.47;3.05;;;;;;;28.97;28.32;101867.88;5048937;28;20381;-73